CDT,Max TemperatureF,Mean TemperatureF,Min TemperatureF,Max Dew PointF,MeanDew PointF,Min DewpointF,Max Humidity, Mean Humidity, Min Humidity, Max Sea Level PressureIn, Mean Sea Level PressureIn, Min Sea Level PressureIn, Max VisibilityMiles, Mean VisibilityMiles, Min VisibilityMiles, Max Wind SpeedMPH, Mean Wind SpeedMPH, Max Gust SpeedMPH,PrecipitationIn, CloudCover, Events, WindDirDegrees
2011-10-1,73,56,41,49,42,35,93,62,26,30.28,30.22,30.16,10,10,10,8,2,,0.00,0,,28
2011-10-2,75,58,42,48,43,40,93,64,30,30.29,30.22,30.18,10,10,10,5,1,,0.00,0,,145
2011-10-3,77,60,44,50,45,42,93,67,32,30.27,30.21,30.17,10,10,10,7,1,,0.00,0,,168
2011-10-4,81,64,48,48,46,44,89,61,28,30.28,30.20,30.15,10,10,10,8,1,,0.00,0,,150
2011-10-5,79,62,46,48,44,40,83,52,25,30.21,30.14,30.08,10,10,8,14,3,,0.00,0,,153
2011-10-6,81,66,52,53,49,45,80,56,34,30.11,30.06,30.01,10,10,10,17,5,24,0.00,0,,143
2011-10-7,82,72,61,59,53,49,73,54,33,30.15,30.09,30.04,10,10,10,24,14,30,0.00,0,,148
2011-10-8,81,70,61,58,55,53,87,62,39,30.17,30.11,30.05,10,10,10,20,9,24,0.00,0,,139
2011-10-9,79,71,63,58,54,52,78,60,42,30.15,30.08,30.02,10,10,10,16,10,24,0.00,0,,123
2011-10-10,73,66,59,63,60,52,100,83,67,30.09,30.03,29.98,10,9,2,10,4,,0.24,6,Rain,164
2011-10-11,78,67,59,67,62,59,100,93,62,29.99,29.90,29.83,10,7,1,12,3,16,0.28,6,Rain,166
2011-10-12,75,67,59,63,59,54,96,81,53,29.83,29.77,29.70,10,10,4,12,4,,0.00,4,Rain-Thunderstorm,200
2011-10-13,71,62,53,52,46,41,88,56,33,29.92,29.87,29.84,10,10,10,12,9,21,0.00,0,,303
2011-10-14,73,60,46,48,44,40,87,55,33,30.04,29.97,29.92,10,10,10,8,3,,0.00,0,,332
2011-10-15,77,62,48,49,43,38,66,50,32,30.15,30.07,30.01,10,10,10,12,3,,0.00,0,,160
2011-10-16,84,72,59,57,51,44,73,52,35,29.99,29.94,29.87,10,10,10,16,9,26,0.00,0,,218
2011-10-17,81,64,48,64,54,40,100,70,40,29.93,29.80,29.68,10,9,2,28,7,36,0.49,2,Rain,101
2011-10-18,57,50,41,46,40,30,100,77,44,30.00,29.93,29.85,10,8,4,22,16,29,0.44,6,Rain,350
2011-10-19,52,44,36,32,28,23,82,59,35,30.02,29.99,29.94,10,10,10,20,9,31,0.00,0,,321
2011-10-20,55,44,34,33,29,26,83,58,37,30.14,30.07,30.01,10,10,6,16,8,22,0.00,0,,293
2011-10-21,69,52,34,42,37,32,92,66,31,30.23,30.16,30.12,10,10,10,5,0,,0.00,0,,215
2011-10-22,73,57,42,58,47,39,100,70,43,30.15,30.07,29.98,10,10,10,9,2,,0.10,1,Rain,91
2011-10-23,70,57,45,57,51,45,100,89,57,30.09,30.02,29.86,10,6,0,15,4,32,0.00,1,Fog,247
2011-10-24,77,60,46,58,51,46,100,86,43,30.20,30.15,30.09,10,6,0,10,3,,0.01,0,Fog,198
2011-10-25,79,65,52,59,56,51,97,70,46,30.10,29.97,29.86,10,10,10,23,10,36,0.00,0,,190
2011-10-26,68,58,48,61,54,46,96,84,73,29.98,29.91,29.84,10,10,8,15,9,,0.02,6,Rain-Thunderstorm,348
2011-10-27,50,48,45,46,43,40,100,85,71,30.14,30.07,29.99,10,10,7,16,9,17,0.25,8,Rain,36
2011-10-28,57,47,37,44,35,30,97,69,36,30.24,30.20,30.14,10,9,2,14,4,20,0.00,2,,302
2011-10-29,62,46,32,38,34,31,96,66,34,30.27,30.18,30.09,10,10,10,13,4,,0.00,0,,205
2011-10-30,64,53,42,40,36,31,76,58,38,30.17,30.11,30.06,10,10,10,20,8,31,0.00,0,,230
2011-10-31,69,52,36,40,35,31,89,61,27,30.19,30.14,30.09,10,10,10,14,4,21,0.00,0,,198